Time;durP1;ratioP1;P1;durP2;ratioP2;P2;SDS_P1;SDS_P2;PMS_P1;PMS_P2;Temp;Humidity;BMP_temperature;BMP_pressure;BME280_temperature;BME280_humidity;BME280_pressure;Samples;Min_cycle;Max_cycle;Signal;HPM_P1;HPM_P2
2023/07/18 00:00:23;;;;;;;25.05;9.57;;;;;;;;;;5002139;28;20104;-88
2023/07/18 00:02:50;;;;;;;31.90;10.15;;;;;;;;;;5000921;28;20054;-88
2023/07/18 00:05:17;;;;;;;24.58;10.18;;;;;;;;;;4983980;28;20064;-87
2023/07/18 00:07:44;;;;;;;21.50;9.32;;;;;;;;;;5085314;28;20061;-88
2023/07/18 00:10:11;;;;;;;23.63;9.80;;;;;;;;;;4985162;28;20066;-88
2023/07/18 00:12:50;;;;;;;23.85;9.45;;;;;;;;;;5002198;28;20077;-88
2023/07/18 00:15:17;;;;;;;18.50;9.02;;;;;;;;;;4984679;28;20051;-88
2023/07/18 00:17:47;;;;;;;22.30;9.65;;;;;;;;;;4986130;28;20115;-88
2023/07/18 00:20:18;;;;;;;24.35;10.35;;;;;;;;;;4985192;28;20061;-88
2023/07/18 00:22:48;;;;;;;28.55;10.00;;;;;;;;;;4983556;28;20089;-88
2023/07/18 00:25:16;;;;;;;24.50;9.73;;;;;;;;;;5000751;28;20076;-88
2023/07/18 00:27:43;;;;;;;22.45;10.60;;;;;;;;;;4988356;28;20058;-88
2023/07/18 00:30:13;;;;;;;21.50;9.63;;;;;;;;;;5001305;28;20133;-88
2023/07/18 00:32:47;;;;;;;24.90;10.50;;;;;;;;;;5002563;28;20053;-88
2023/07/18 00:35:14;;;;;;;20.88;9.65;;;;;;;;;;5002649;28;20058;-88
2023/07/18 00:37:43;;;;;;;28.88;9.95;;;;;;;;;;5003377;28;20481;-88
2023/07/18 00:40:11;;;;;;;25.80;10.45;;;;;;;;;;4985270;28;20081;-88
2023/07/18 00:42:39;;;;;;;31.67;10.32;;;;;;;;;;5002822;28;20426;-88
2023/07/18 00:45:07;;;;;;;23.85;11.00;;;;;;;;;;4984854;28;20107;-88
2023/07/18 00:47:40;;;;;;;33.25;10.45;;;;;;;;;;4984451;28;20108;-88
2023/07/18 00:50:08;;;;;;;23.02;10.57;;;;;;;;;;4984176;28;20106;-88
2023/07/18 00:52:40;;;;;;;25.17;10.70;;;;;;;;;;4983441;28;20117;-88
2023/07/18 00:55:11;;;;;;;22.52;10.32;;;;;;;;;;4984986;28;20160;-88
2023/07/18 00:57:38;;;;;;;28.60;9.02;;;;;;;;;;4983833;28;20042;-89
2023/07/18 01:00:09;;;;;;;28.85;12.10;;;;;;;;;;4983834;28;20423;-88
2023/07/18 01:02:36;;;;;;;26.23;10.98;;;;;;;;;;4982721;28;20069;-88
2023/07/18 01:05:03;;;;;;;27.65;10.75;;;;;;;;;;4985697;28;20058;-88
2023/07/18 01:07:33;;;;;;;33.05;11.48;;;;;;;;;;4990777;28;20137;-88
2023/07/18 01:10:37;;;;;;;27.85;11.13;;;;;;;;;;5002432;28;20526;-88
2023/07/18 01:13:08;;;;;;;33.47;11.13;;;;;;;;;;5000445;28;20084;-88
2023/07/18 01:15:35;;;;;;;25.40;10.82;;;;;;;;;;5085254;28;20047;-88
2023/07/18 01:18:08;;;;;;;24.95;11.07;;;;;;;;;;5001532;28;20051;-88
2023/07/18 01:20:36;;;;;;;38.58;11.18;;;;;;;;;;5091453;28;20078;-89
2023/07/18 01:23:06;;;;;;;23.30;9.93;;;;;;;;;;5009552;28;20556;-89
2023/07/18 01:25:36;;;;;;;32.50;11.77;;;;;;;;;;4994339;28;20054;-88
2023/07/18 01:28:03;;;;;;;24.60;11.52;;;;;;;;;;4995041;28;20051;-88
2023/07/18 01:30:30;;;;;;;25.73;11.20;;;;;;;;;;5011600;28;20054;-88
2023/07/18 01:32:57;;;;;;;29.27;11.07;;;;;;;;;;4990422;28;20437;-88
2023/07/18 01:35:28;;;;;;;24.42;12.05;;;;;;;;;;4984907;28;20047;-88
2023/07/18 01:37:55;;;;;;;25.88;12.07;;;;;;;;;;5001161;28;20054;-88
2023/07/18 01:40:34;;;;;;;28.63;11.48;;;;;;;;;;5001684;28;20042;-88
2023/07/18 01:43:03;;;;;;;26.55;11.00;;;;;;;;;;5003547;28;20298;-88
2023/07/18 01:45:30;;;;;;;25.15;10.80;;;;;;;;;;5001135;28;20050;-88
2023/07/18 01:48:02;;;;;;;27.75;10.90;;;;;;;;;;5083639;28;20469;-88
2023/07/18 01:50:29;;;;;;;24.15;11.90;;;;;;;;;;4988817;28;20050;-88
2023/07/18 01:52:59;;;;;;;30.00;12.45;;;;;;;;;;4985137;28;20165;-88
2023/07/18 01:55:28;;;;;;;28.35;12.60;;;;;;;;;;4983236;28;20050;-88
2023/07/18 01:57:55;;;;;;;26.52;11.48;;;;;;;;;;5001056;28;20046;-88
2023/07/18 02:00:24;;;;;;;27.75;11.77;;;;;;;;;;5000789;28;20057;-88
2023/07/18 02:02:54;;;;;;;26.20;11.05;;;;;;;;;;4983882;28;20112;-88
2023/07/18 02:05:23;;;;;;;22.65;10.70;;;;;;;;;;5000885;28;20107;-88
2023/07/18 02:07:50;;;;;;;29.42;11.85;;;;;;;;;;4985085;28;20095;-88
2023/07/18 02:10:20;;;;;;;26.55;12.13;;;;;;;;;;4983628;28;20046;-88
2023/07/18 02:12:50;;;;;;;30.48;12.13;;;;;;;;;;5001655;28;20429;-88
2023/07/18 02:15:17;;;;;;;28.23;12.20;;;;;;;;;;4985275;28;20050;-88
2023/07/18 02:17:45;;;;;;;30.50;12.20;;;;;;;;;;5006930;28;20046;-88
2023/07/18 02:20:15;;;;;;;30.27;12.63;;;;;;;;;;5007011;28;20112;-88
2023/07/18 02:22:43;;;;;;;26.83;12.45;;;;;;;;;;5002024;28;20217;-89
2023/07/18 02:25:10;;;;;;;29.67;11.65;;;;;;;;;;5006089;28;20211;-88
2023/07/18 02:27:38;;;;;;;27.80;11.77;;;;;;;;;;5002198;28;20181;-88
2023/07/18 02:30:12;;;;;;;32.20;12.55;;;;;;;;;;4984837;28;20069;-87
2023/07/18 02:32:40;;;;;;;29.08;13.07;;;;;;;;;;4983517;28;20064;-87
2023/07/18 02:35:10;;;;;;;26.17;12.85;;;;;;;;;;4983734;28;20057;-87
2023/07/18 02:37:37;;;;;;;29.58;12.50;;;;;;;;;;5001425;28;20076;-87
2023/07/18 02:40:08;;;;;;;29.58;13.30;;;;;;;;;;4984061;28;20073;-87
2023/07/18 02:42:37;;;;;;;25.55;12.30;;;;;;;;;;5000987;28;20046;-88
2023/07/18 02:45:10;;;;;;;29.23;13.00;;;;;;;;;;4999892;28;20100;-87
2023/07/18 02:47:38;;;;;;;29.13;13.93;;;;;;;;;;5001261;28;20093;-87
2023/07/18 02:50:05;;;;;;;30.08;13.18;;;;;;;;;;4999855;28;20051;-87
2023/07/18 02:52:32;;;;;;;26.98;13.45;;;;;;;;;;4981061;28;20088;-87
2023/07/18 02:54:59;;;;;;;31.90;12.80;;;;;;;;;;4981695;28;20102;-87
2023/07/18 02:57:26;;;;;;;29.83;12.95;;;;;;;;;;4998236;28;20050;-88
2023/07/18 02:59:55;;;;;;;28.13;13.57;;;;;;;;;;4980939;28;20145;-87
2023/07/18 03:02:25;;;;;;;32.30;13.98;;;;;;;;;;4981890;28;20089;-87
2023/07/18 03:04:52;;;;;;;29.60;12.85;;;;;;;;;;5000746;28;20074;-87
2023/07/18 03:07:18;;;;;;;33.72;15.63;;;;;;;;;;4999554;28;20067;-88
2023/07/18 03:09:49;;;;;;;27.27;13.15;;;;;;;;;;4982767;28;20324;-88
2023/07/18 03:12:21;;;;;;;32.05;14.65;;;;;;;;;;4985890;28;20081;-88
2023/07/18 03:14:50;;;;;;;36.42;14.75;;;;;;;;;;4999672;28;20055;-88
2023/07/18 03:17:17;;;;;;;35.85;13.82;;;;;;;;;;4981760;28;20073;-88
2023/07/18 03:19:46;;;;;;;35.20;14.35;;;;;;;;;;4997640;28;20051;-88
2023/07/18 03:22:14;;;;;;;32.67;13.85;;;;;;;;;;4980548;28;20092;-87
2023/07/18 03:24:43;;;;;;;31.13;14.25;;;;;;;;;;4998570;28;20050;-87
2023/07/18 03:27:13;;;;;;;28.05;13.82;;;;;;;;;;4982164;28;20345;-87
2023/07/18 03:29:40;;;;;;;31.20;13.50;;;;;;;;;;4981945;28;20433;-87
2023/07/18 03:32:07;;;;;;;30.15;15.00;;;;;;;;;;4999349;28;20193;-87
2023/07/18 03:34:37;;;;;;;32.55;14.13;;;;;;;;;;4989359;28;20054;-89
2023/07/18 03:37:18;;;;;;;29.75;14.48;;;;;;;;;;5018016;28;20025;-88
2023/07/18 03:40:30;;;;;;;29.33;14.32;;;;;;;;;;4945848;28;20043;-86
2023/07/18 03:43:10;;;;;;;38.88;14.63;;;;;;;;;;4945077;28;20032;-87
2023/07/18 03:45:56;;;;;;;31.48;14.75;;;;;;;;;;4959618;28;20071;-85
2023/07/18 03:51:14;;;;;;;34.33;15.13;;;;;;;;;;5753579;22;20072;-88
2023/07/18 03:53:56;;;;;;;36.67;15.15;;;;;;;;;;5077481;28;20033;-87
2023/07/18 03:56:38;;;;;;;29.95;14.88;;;;;;;;;;5077193;28;20021;-86
2023/07/18 03:59:43;;;;;;;38.90;15.68;;;;;;;;;;5017150;28;20034;-88
2023/07/18 04:02:26;;;;;;;29.15;14.30;;;;;;;;;;5016250;28;20044;-88
2023/07/18 04:05:07;;;;;;;30.30;14.48;;;;;;;;;;5016474;28;20041;-86
2023/07/18 04:07:51;;;;;;;31.67;14.52;;;;;;;;;;5016172;28;20057;-87
2023/07/18 04:10:32;;;;;;;28.75;14.48;;;;;;;;;;5046394;22;20078;-86
2023/07/18 04:13:13;;;;;;;32.67;13.75;;;;;;;;;;5016593;28;20109;-87
2023/07/18 04:15:58;;;;;;;33.58;13.85;;;;;;;;;;5018060;28;20091;-85
2023/07/18 04:18:39;;;;;;;30.50;13.93;;;;;;;;;;5016285;28;20048;-85
2023/07/18 04:21:26;;;;;;;30.20;13.85;;;;;;;;;;5016524;28;20086;-88
2023/07/18 04:24:08;;;;;;;33.03;13.50;;;;;;;;;;5016843;28;20094;-85
2023/07/18 04:29:24;;;;;;;30.27;14.30;;;;;;;;;;5055642;27;20077;-87
2023/07/18 04:32:05;;;;;;;23.88;12.18;;;;;;;;;;5152665;22;20113;-87
2023/07/18 04:45:30;;;;;;;25.73;12.13;;;;;;;;;;5056063;27;20121;-87
2023/07/18 04:48:14;;;;;;;29.92;13.65;;;;;;;;;;5053946;27;20084;-88
2023/07/18 04:50:58;;;;;;;34.58;12.45;;;;;;;;;;5054546;27;20082;-88
2023/07/18 04:53:49;;;;;;;26.67;13.23;;;;;;;;;;5055188;27;20065;-88
2023/07/18 04:56:30;;;;;;;23.58;12.48;;;;;;;;;;5056063;27;20052;-88
2023/07/18 04:59:16;;;;;;;29.05;12.55;;;;;;;;;;5055915;27;20089;-86
2023/07/18 05:01:56;;;;;;;24.90;12.52;;;;;;;;;;5051669;27;20055;-88
2023/07/18 05:04:37;;;;;;;19.80;12.10;;;;;;;;;;5054074;27;20049;-88
2023/07/18 05:07:25;;;;;;;46.30;12.77;;;;;;;;;;5052784;28;20060;-88
2023/07/18 05:10:06;;;;;;;29.83;11.75;;;;;;;;;;5053635;28;20052;-87
2023/07/18 05:12:48;;;;;;;22.10;10.18;;;;;;;;;;5052217;27;20045;-86
2023/07/18 05:15:30;;;;;;;23.92;10.60;;;;;;;;;;5052455;27;20048;-86
2023/07/18 05:18:14;;;;;;;22.55;10.07;;;;;;;;;;5052440;27;20260;-88
2023/07/18 05:24:17;;;;;;;19.05;9.23;;;;;;;;;;5054745;27;20099;-89
2023/07/18 05:26:58;;;;;;;19.58;9.25;;;;;;;;;;5055165;27;20034;-87
2023/07/18 05:29:39;;;;;;;16.92;9.02;;;;;;;;;;5052409;27;20053;-88
2023/07/18 05:32:20;;;;;;;20.67;8.60;;;;;;;;;;5049834;27;20065;-87
2023/07/18 05:35:19;;;;;;;15.07;8.82;;;;;;;;;;5052945;27;20093;-87
2023/07/18 05:38:02;;;;;;;16.85;7.50;;;;;;;;;;5049686;28;20059;-87
2023/07/18 05:40:34;;;;;;;20.00;8.25;;;;;;;;;;5052072;28;20059;-88
2023/07/18 05:43:20;;;;;;;19.10;7.90;;;;;;;;;;5051146;28;20172;-88
2023/07/18 05:46:03;;;;;;;17.17;8.60;;;;;;;;;;5049881;28;20134;-86
2023/07/18 05:48:44;;;;;;;12.73;7.10;;;;;;;;;;5050151;27;20034;-89
2023/07/18 05:51:18;;;;;;;16.25;8.32;;;;;;;;;;5050862;28;20086;-88
2023/07/18 05:54:05;;;;;;;16.63;8.63;;;;;;;;;;5049343;27;20041;-87
2023/07/18 05:56:46;;;;;;;19.13;7.15;;;;;;;;;;5044722;28;20057;-87
2023/07/18 05:59:24;;;;;;;14.95;7.38;;;;;;;;;;5047315;27;20094;-87
2023/07/18 06:02:05;;;;;;;16.02;6.80;;;;;;;;;;5045054;27;20049;-87
2023/07/18 06:04:59;;;;;;;11.65;6.20;;;;;;;;;;5049361;27;20034;-88
2023/07/18 06:07:43;;;;;;;13.18;6.05;;;;;;;;;;5047460;27;20045;-88
2023/07/18 06:10:35;;;;;;;15.65;5.90;;;;;;;;;;5048052;27;20049;-87
2023/07/18 06:13:25;;;;;;;22.15;6.53;;;;;;;;;;5050227;27;20045;-86
2023/07/18 06:16:05;;;;;;;16.33;6.15;;;;;;;;;;5046593;28;20100;-87
2023/07/18 06:18:52;;;;;;;19.50;6.05;;;;;;;;;;5048818;27;20043;-89
2023/07/18 06:21:35;;;;;;;20.65;6.18;;;;;;;;;;5047578;27;20233;-89
2023/07/18 06:24:17;;;;;;;10.38;5.20;;;;;;;;;;5043669;28;20068;-91
2023/07/18 06:26:58;;;;;;;8.95;5.03;;;;;;;;;;5046521;28;20037;-86
2023/07/18 06:30:02;;;;;;;11.90;5.15;;;;;;;;;;5047608;27;20105;-87
2023/07/18 06:32:44;;;;;;;10.23;5.03;;;;;;;;;;5045687;28;20144;-87
2023/07/18 06:35:25;;;;;;;11.82;4.82;;;;;;;;;;5047137;27;20128;-87
2023/07/18 06:38:05;;;;;;;18.35;5.53;;;;;;;;;;5045695;28;20196;-87
2023/07/18 06:40:47;;;;;;;17.92;5.53;;;;;;;;;;5045010;28;20044;-86
2023/07/18 06:43:27;;;;;;;13.38;4.07;;;;;;;;;;5046566;27;20025;-87
2023/07/18 06:46:24;;;;;;;9.75;4.25;;;;;;;;;;5043744;28;20056;-87
2023/07/18 06:49:07;;;;;;;13.90;4.10;;;;;;;;;;5042420;28;20045;-88
2023/07/18 06:51:51;;;;;;;14.85;4.85;;;;;;;;;;5046843;27;20237;-87
2023/07/18 06:54:31;;;;;;;11.88;3.53;;;;;;;;;;5044790;28;20052;-88
2023/07/18 06:57:14;;;;;;;12.48;4.97;;;;;;;;;;5039920;27;20049;-87
2023/07/18 06:59:55;;;;;;;9.25;3.50;;;;;;;;;;5038314;28;20125;-87
2023/07/18 07:02:35;;;;;;;9.57;3.28;;;;;;;;;;5040608;28;20061;-87
2023/07/18 07:05:16;;;;;;;13.45;3.67;;;;;;;;;;5040461;27;20072;-86
2023/07/18 07:07:56;;;;;;;9.90;3.05;;;;;;;;;;5046044;28;20044;-87
2023/07/18 07:11:05;;;;;;;14.00;4.55;;;;;;;;;;5041481;28;20376;-87
2023/07/18 07:13:47;;;;;;;18.17;3.72;;;;;;;;;;5037891;28;20322;-87
2023/07/18 07:16:43;;;;;;;14.85;3.70;;;;;;;;;;5041382;28;20030;-87
2023/07/18 07:19:19;;;;;;;12.13;3.08;;;;;;;;;;5038977;28;20081;-88
2023/07/18 07:21:59;;;;;;;11.60;3.80;;;;;;;;;;5039802;27;20037;-87
2023/07/18 07:24:40;;;;;;;17.00;5.18;;;;;;;;;;5039358;28;20033;-86
2023/07/18 07:27:15;;;;;;;19.85;4.25;;;;;;;;;;5038331;28;20045;-87
2023/07/18 07:29:56;;;;;;;8.98;2.85;;;;;;;;;;5040857;28;20051;-86
2023/07/18 07:32:50;;;;;;;14.20;3.38;;;;;;;;;;5099302;27;20206;-87
2023/07/18 07:35:33;;;;;;;13.75;3.92;;;;;;;;;;5022284;28;20095;-87
2023/07/18 07:38:14;;;;;;;10.23;3.60;;;;;;;;;;5026969;28;20061;-87
2023/07/18 07:40:55;;;;;;;13.98;2.60;;;;;;;;;;5020727;28;20095;-88
2023/07/18 07:43:38;;;;;;;12.50;2.97;;;;;;;;;;5033444;28;20042;-88
2023/07/18 07:46:20;;;;;;;10.75;2.50;;;;;;;;;;5024159;28;20095;-87
2023/07/18 07:49:06;;;;;;;9.52;2.70;;;;;;;;;;5015576;28;20223;-87
2023/07/18 07:51:49;;;;;;;8.40;2.40;;;;;;;;;;5018660;28;20083;-89
2023/07/18 07:54:32;;;;;;;13.43;3.72;;;;;;;;;;5024364;28;20033;-88
2023/07/18 07:57:23;;;;;;;9.88;2.22;;;;;;;;;;5028410;28;20050;-89
2023/07/18 08:00:04;;;;;;;13.57;2.90;;;;;;;;;;5026053;28;20109;-90
2023/07/18 08:02:50;;;;;;;13.32;3.33;;;;;;;;;;5117236;27;20030;-87
2023/07/18 08:05:22;;;;;;;13.18;2.30;;;;;;;;;;5026970;28;20085;-88
2023/07/18 08:08:03;;;;;;;8.68;2.78;;;;;;;;;;5026581;28;20026;-88
2023/07/18 08:10:53;;;;;;;8.93;2.40;;;;;;;;;;5028113;28;20042;-91
2023/07/18 08:13:40;;;;;;;10.15;2.47;;;;;;;;;;5027202;28;20033;-87
2023/07/18 08:16:25;;;;;;;8.15;2.22;;;;;;;;;;5025649;28;20101;-88
2023/07/18 08:19:05;;;;;;;8.13;2.22;;;;;;;;;;5024144;28;20113;-88
2023/07/18 08:25:30;;;;;;;9.25;2.40;;;;;;;;;;5032381;28;20040;-88
2023/07/18 08:28:15;;;;;;;13.00;2.35;;;;;;;;;;5031022;28;20092;-92
2023/07/18 08:31:22;;;;;;;11.38;2.42;;;;;;;;;;5029921;28;20045;-88
2023/07/18 08:34:06;;;;;;;9.00;2.10;;;;;;;;;;5030144;28;20248;-88
2023/07/18 08:36:47;;;;;;;7.82;2.28;;;;;;;;;;5017783;28;20116;-88
2023/07/18 08:39:30;;;;;;;9.02;1.70;;;;;;;;;;5027786;28;20046;-88
2023/07/18 08:42:15;;;;;;;5.13;1.77;;;;;;;;;;5028080;28;20034;-89
2023/07/18 08:44:59;;;;;;;5.63;1.92;;;;;;;;;;5032057;28;20034;-88
2023/07/18 08:48:00;;;;;;;7.07;1.90;;;;;;;;;;5028656;28;20042;-88
2023/07/18 08:50:42;;;;;;;8.15;1.60;;;;;;;;;;5032770;28;20042;-89
2023/07/18 08:53:34;;;;;;;4.47;1.38;;;;;;;;;;5029895;28;20061;-88
2023/07/18 08:56:14;;;;;;;8.00;1.50;;;;;;;;;;5026191;28;20124;-88
2023/07/18 08:58:58;;;;;;;5.95;1.42;;;;;;;;;;5038171;22;20058;-88
2023/07/18 09:01:28;;;;;;;5.82;1.35;;;;;;;;;;5012034;28;20167;-89
2023/07/18 09:04:12;;;;;;;5.82;1.30;;;;;;;;;;5011688;28;20060;-88
2023/07/18 09:07:04;;;;;;;6.28;1.20;;;;;;;;;;5011852;28;20098;-88
2023/07/18 09:09:53;;;;;;;6.22;1.40;;;;;;;;;;5004616;28;20058;-89
2023/07/18 09:12:34;;;;;;;4.53;1.10;;;;;;;;;;5010248;28;20037;-89
2023/07/18 09:15:22;;;;;;;5.43;1.15;;;;;;;;;;5013834;28;20034;-89
2023/07/18 09:18:21;;;;;;;4.32;1.20;;;;;;;;;;5013815;28;20064;-88
2023/07/18 09:21:11;;;;;;;9.40;1.45;;;;;;;;;;5009585;28;20111;-89
2023/07/18 09:24:07;;;;;;;7.57;1.52;;;;;;;;;;5009330;28;20055;-90
2023/07/18 09:26:57;;;;;;;4.47;1.55;;;;;;;;;;5012899;28;20084;-89
2023/07/18 09:29:46;;;;;;;6.13;1.27;;;;;;;;;;5010375;28;20057;-88
2023/07/18 09:32:42;;;;;;;8.95;1.60;;;;;;;;;;5011664;28;20053;-90
2023/07/18 09:35:27;;;;;;;6.50;0.98;;;;;;;;;;5011521;28;20252;-89
2023/07/18 09:38:21;;;;;;;7.85;1.25;;;;;;;;;;5231788;22;20056;-89
2023/07/18 09:41:05;;;;;;;6.85;1.25;;;;;;;;;;5109119;28;20052;-88
2023/07/18 09:44:06;;;;;;;;;;;;;;;;;;;;;
2023/07/18 09:46:55;;;;;;;5.70;1.25;;;;;;;;;;5112976;28;20044;-89
2023/07/18 09:49:55;;;;;;;6.10;1.15;;;;;;;;;;5113637;28;20035;-89
2023/07/18 09:52:43;;;;;;;10.48;1.30;;;;;;;;;;5113968;28;20051;-89
2023/07/18 09:55:34;;;;;;;6.20;1.30;;;;;;;;;;5195805;22;20046;-89
2023/07/18 09:58:20;;;;;;;5.53;0.93;;;;;;;;;;4995048;28;20058;-89
2023/07/18 10:01:35;;;;;;;5.47;1.13;;;;;;;;;;4997239;28;20051;-90
2023/07/18 10:04:27;;;;;;;;;;;;;;;;;;;;;
2023/07/18 10:12:45;;;;;;;4.70;1.10;;;;;;;;;;3183500;22;20119;-89
2023/07/18 10:15:31;;;;;;;3.17;0.90;;;;;;;;;;5134418;28;20034;-89
2023/07/18 10:18:28;;;;;;;4.78;0.90;;;;;;;;;;5133472;28;20180;-88
2023/07/18 10:21:13;;;;;;;5.20;0.85;;;;;;;;;;5133317;28;20036;-91
2023/07/18 10:23:59;;;;;;;5.30;1.30;;;;;;;;;;5133071;28;20046;-89
2023/07/18 10:26:43;;;;;;;4.38;1.08;;;;;;;;;;5135186;28;20043;-90
2023/07/18 10:29:41;;;;;;;3.67;1.13;;;;;;;;;;5136781;28;20023;-90
2023/07/18 10:32:29;;;;;;;2.92;0.80;;;;;;;;;;5134100;28;20484;-91
2023/07/18 10:35:20;;;;;;;3.90;0.88;;;;;;;;;;5133928;28;20024;-90
2023/07/18 10:38:23;;;;;;;5.63;0.98;;;;;;;;;;5133683;28;20185;-90
2023/07/18 10:41:00;;;;;;;2.83;0.70;;;;;;;;;;5279720;22;20047;-91
2023/07/18 10:43:47;;;;;;;3.30;0.90;;;;;;;;;;5098206;28;20051;-90
2023/07/18 10:55:00;;;;;;;4.30;1.00;;;;;;;;;;5156708;22;20104;-90
2023/07/18 11:03:45;;;;;;;6.13;1.08;;;;;;;;;;5261223;22;20058;-91
2023/07/18 11:06:47;;;;;;;4.38;1.00;;;;;;;;;;5058012;28;20100;-90
2023/07/18 11:09:28;;;;;;;3.97;1.02;;;;;;;;;;5054996;28;20039;-89
2023/07/18 11:12:34;;;;;;;3.50;1.00;;;;;;;;;;5073291;28;20027;-90
2023/07/18 11:20:54;;;;;;;2.88;0.90;;;;;;;;;;5581161;22;20091;-89
2023/07/18 11:39:39;;;;;;;6.32;1.20;;;;;;;;;;5339850;22;20037;-90
2023/07/18 11:42:29;;;;;;;5.22;1.33;;;;;;;;;;5092340;28;20045;-89
2023/07/18 11:45:18;;;;;;;3.53;0.93;;;;;;;;;;5312448;22;20060;-91
2023/07/18 11:48:06;;;;;;;9.10;0.95;;;;;;;;;;5093073;28;20043;-89
2023/07/18 11:56:17;;;;;;;8.23;1.73;;;;;;;;;;5088012;22;20095;-90
2023/07/18 11:59:02;;;;;;;6.28;1.27;;;;;;;;;;5281956;22;20040;-90
2023/07/18 12:01:44;;;;;;;;;;;;;;;;;;5309816;22;20044;-90
2023/07/18 12:04:45;;;;;;;9.32;1.65;;;;;;;;;;5083573;28;19939;-87
2023/07/18 12:34:16;;;;;;;10.63;2.60;;;;;;;;;;5404571;22;20032;-90
2023/07/18 12:36:56;;;;;;;6.55;2.35;;;;;;;;;;5082027;28;20029;-89
2023/07/18 12:39:47;;;;;;;11.75;2.80;;;;;;;;;;5080376;28;20035;-89
2023/07/18 12:42:28;;;;;;;12.82;3.13;;;;;;;;;;5095715;28;20076;-89
2023/07/18 12:45:39;;;;;;;14.40;3.35;;;;;;;;;;5095241;28;20097;-89
2023/07/18 12:48:47;;;;;;;9.23;3.45;;;;;;;;;;5094589;28;20062;-90
2023/07/18 12:54:04;;;;;;;9.23;3.30;;;;;;;;;;5187260;22;20067;-89
2023/07/18 12:56:51;;;;;;;7.68;2.35;;;;;;;;;;5126692;22;20055;-89
2023/07/18 13:02:13;;;;;;;9.65;2.22;;;;;;;;;;5535897;22;20124;-89
2023/07/18 13:10:27;;;;;;;18.67;2.53;;;;;;;;;;4622730;26;20037;-89
2023/07/18 13:13:12;;;;;;;11.70;2.10;;;;;;;;;;5040254;28;20276;-89
2023/07/18 13:18:55;;;;;;;6.78;1.63;;;;;;;;;;5243601;22;20056;-91
2023/07/18 13:21:36;;;;;;;7.40;2.03;;;;;;;;;;5095042;28;20100;-89
2023/07/18 13:24:17;;;;;;;5.75;1.55;;;;;;;;;;5080036;28;20063;-88
2023/07/18 13:27:14;;;;;;;7.38;1.80;;;;;;;;;;5079139;28;20035;-90
2023/07/18 13:30:22;;;;;;;9.65;2.25;;;;;;;;;;5094359;28;20032;-88
2023/07/18 13:33:11;;;;;;;5.88;1.98;;;;;;;;;;5094135;28;20036;-90
2023/07/18 13:35:53;;;;;;;6.68;1.65;;;;;;;;;;5094645;28;20104;-89
2023/07/18 13:38:48;;;;;;;7.10;2.13;;;;;;;;;;5094434;28;20071;-91
2023/07/18 13:41:29;;;;;;;18.10;3.72;;;;;;;;;;5094944;28;20043;-89
2023/07/18 13:44:18;;;;;;;8.77;2.05;;;;;;;;;;5094653;28;20036;-91
2023/07/18 13:47:17;;;;;;;6.20;1.90;;;;;;;;;;5095221;28;20039;-90
2023/07/18 13:50:03;;;;;;;6.88;1.73;;;;;;;;;;5271090;22;20101;-88
2023/07/18 13:52:45;;;;;;;4.25;1.75;;;;;;;;;;5059953;28;20040;-89
2023/07/18 13:55:28;;;;;;;8.75;2.13;;;;;;;;;;5073865;28;20041;-89
2023/07/18 13:58:44;;;;;;;6.95;1.30;;;;;;;;;;5058697;28;20032;-89
2023/07/18 14:03:56;;;;;;;4.50;1.38;;;;;;;;;;5094825;28;20041;-89
2023/07/18 14:13:41;;;;;;;4.82;1.73;;;;;;;;;;5095129;28;20124;-89
2023/07/18 14:16:25;;;;;;;7.10;1.90;;;;;;;;;;5078624;28;20068;-89
2023/07/18 14:19:08;;;;;;;6.00;1.50;;;;;;;;;;5079813;28;20036;-90
2023/07/18 14:21:49;;;;;;;7.60;1.55;;;;;;;;;;5079811;28;20048;-91
2023/07/18 14:32:54;;;;;;;5.85;1.80;;;;;;;;;;5074645;28;20072;-89
2023/07/18 14:41:09;;;;;;;3.70;1.10;;;;;;;;;;4031516;22;20731;-89
2023/07/18 14:43:52;;;;;;;3.83;1.48;;;;;;;;;;5059868;28;20043;-89
2023/07/18 14:46:48;;;;;;;4.85;1.25;;;;;;;;;;5074920;28;20036;-89
2023/07/18 14:49:29;;;;;;;4.10;1.17;;;;;;;;;;5059711;28;20028;-89
2023/07/18 14:52:09;;;;;;;5.80;1.40;;;;;;;;;;5074396;28;20086;-89
2023/07/18 14:54:57;;;;;;;11.18;1.35;;;;;;;;;;5073916;28;20040;-90
2023/07/18 14:57:57;;;;;;;3.55;1.30;;;;;;;;;;5072985;28;20045;-89
2023/07/18 15:00:44;;;;;;;9.45;1.75;;;;;;;;;;5059075;28;20045;-89
2023/07/18 15:03:27;;;;;;;15.97;2.10;;;;;;;;;;5059262;28;20232;-90
2023/07/18 15:11:43;;;;;;;8.82;1.27;;;;;;;;;;5124197;22;20074;-88
2023/07/18 15:14:28;;;;;;;7.70;1.05;;;;;;;;;;5077797;28;20063;-89
2023/07/18 15:17:22;;;;;;;4.57;1.30;;;;;;;;;;5092808;28;20063;-90
2023/07/18 15:20:14;;;;;;;2.97;0.95;;;;;;;;;;5230170;22;20064;-88
2023/07/18 15:23:11;;;;;;;6.88;1.25;;;;;;;;;;5059281;28;20025;-89
2023/07/18 15:26:29;;;;;;;6.25;1.20;;;;;;;;;;5073804;28;20112;-91
2023/07/18 15:29:16;;;;;;;4.40;1.30;;;;;;;;;;5074205;28;20037;-88
2023/07/18 15:32:00;;;;;;;2.92;0.80;;;;;;;;;;5077039;28;20029;-89
2023/07/18 15:34:44;;;;;;;2.92;0.93;;;;;;;;;;5061006;28;20083;-89
2023/07/18 15:37:25;;;;;;;5.00;1.00;;;;;;;;;;5328538;22;20065;-89
2023/07/18 15:40:06;;;;;;;6.28;1.50;;;;;;;;;;5096843;28;20028;-89
2023/07/18 15:43:02;;;;;;;5.35;1.27;;;;;;;;;;5098946;28;20066;-89
2023/07/18 15:45:46;;;;;;;6.65;1.65;;;;;;;;;;5097992;28;20021;-89
2023/07/18 15:51:54;;;;;;;7.70;1.02;;;;;;;;;;5099458;28;20038;-88
2023/07/18 15:54:41;;;;;;;4.95;1.63;;;;;;;;;;5097946;28;20039;-89
2023/07/18 15:57:23;;;;;;;5.60;1.50;;;;;;;;;;5097829;28;20115;-89
2023/07/18 16:00:08;;;;;;;3.90;1.33;;;;;;;;;;5097337;28;20094;-88
2023/07/18 16:03:04;;;;;;;6.70;1.13;;;;;;;;;;5098113;28;20045;-90
2023/07/18 16:05:50;;;;;;;5.47;1.85;;;;;;;;;;5099250;28;20062;-89
2023/07/18 16:08:33;;;;;;;3.92;1.58;;;;;;;;;;5098132;28;20206;-89
2023/07/18 16:11:18;;;;;;;4.55;1.33;;;;;;;;;;5162784;22;20056;-89
2023/07/18 16:19:20;;;;;;;5.38;1.20;;;;;;;;;;5330189;22;20073;-90
2023/07/18 16:24:41;;;;;;;3.42;0.98;;;;;;;;;;5592327;22;20079;-90
2023/07/18 16:27:36;;;;;;;3.20;1.10;;;;;;;;;;5285614;22;20041;-89
2023/07/18 16:33:25;;;;;;;4.57;0.77;;;;;;;;;;5468995;22;20051;-90
2023/07/18 16:36:26;;;;;;;2.38;0.98;;;;;;;;;;5442740;22;20103;-90
2023/07/18 16:41:50;;;;;;;3.95;1.15;;;;;;;;;;5285984;22;20125;-91
2023/07/18 16:44:32;;;;;;;4.05;1.30;;;;;;;;;;5119951;22;20036;-87
2023/07/18 16:47:27;;;;;;;4.53;1.33;;;;;;;;;;5077869;28;20034;-89
2023/07/18 16:50:25;;;;;;;6.97;1.17;;;;;;;;;;5229519;22;20060;-89
2023/07/18 16:53:10;;;;;;;3.55;1.17;;;;;;;;;;5082340;28;20024;-89
2023/07/18 16:55:55;;;;;;;5.28;0.90;;;;;;;;;;5096159;28;20047;-87
2023/07/18 16:58:37;;;;;;;4.28;1.75;;;;;;;;;;5110327;22;20044;-90
2023/07/18 17:01:24;;;;;;;5.70;1.20;;;;;;;;;;5096900;28;20032;-89
2023/07/18 17:04:16;;;;;;;8.30;2.50;;;;;;;;;;5096960;28;20056;-88
2023/07/18 17:10:40;;;;;;;5.40;1.40;;;;;;;;;;4997215;28;20123;-89
2023/07/18 17:13:21;;;;;;;6.55;1.27;;;;;;;;;;4995265;28;20058;-89
2023/07/18 17:16:03;;;;;;;3.80;1.30;;;;;;;;;;4995807;28;20034;-88
2023/07/18 17:22:43;;;;;;;2.83;0.90;;;;;;;;;;4997134;28;20085;-89
2023/07/18 17:25:32;;;;;;;7.22;1.35;;;;;;;;;;4996040;28;20050;-88
2023/07/18 17:28:30;;;;;;;8.45;1.33;;;;;;;;;;4996204;28;20035;-89
2023/07/18 17:31:10;;;;;;;4.97;1.08;;;;;;;;;;4995550;28;20046;-88
2023/07/18 17:33:52;;;;;;;6.68;1.50;;;;;;;;;;5135204;22;20115;-88
2023/07/18 17:36:33;;;;;;;2.03;1.13;;;;;;;;;;5096624;28;20036;-88
2023/07/18 17:39:21;;;;;;;3.65;1.15;;;;;;;;;;5095179;28;20063;-89
2023/07/18 17:42:25;;;;;;;3.97;0.93;;;;;;;;;;5022473;28;20041;-89
2023/07/18 17:45:05;;;;;;;1.95;1.02;;;;;;;;;;5021063;28;20077;-89
2023/07/18 17:47:46;;;;;;;1.60;0.82;;;;;;;;;;5049757;22;20053;-88
2023/07/18 17:50:31;;;;;;;9.20;1.75;;;;;;;;;;5061024;28;20035;-89
2023/07/18 17:53:21;;;;;;;2.00;1.08;;;;;;;;;;5061012;28;20092;-89
2023/07/18 17:56:03;;;;;;;3.97;1.05;;;;;;;;;;5059859;28;20048;-89
2023/07/18 18:01:54;;;;;;;3.33;0.90;;;;;;;;;;5520458;22;20024;-89
2023/07/18 18:04:59;;;;;;;3.65;0.90;;;;;;;;;;5137771;22;20040;-90
2023/07/18 18:07:50;;;;;;;2.08;1.23;;;;;;;;;;5073701;28;20037;-90
2023/07/18 18:24:20;;;;;;;1.80;0.90;;;;;;;;;;5424438;22;20053;-90
2023/07/18 18:35:26;;;;;;;4.00;0.75;;;;;;;;;;5786284;22;20024;-89
2023/07/18 18:43:22;;;;;;;2.63;1.35;;;;;;;;;;5207922;22;20087;-88
2023/07/18 18:46:20;;;;;;;1.73;1.08;;;;;;;;;;5074298;28;20111;-87
2023/07/18 19:03:20;;;;;;;1.90;0.85;;;;;;;;;;5089327;28;20029;-89
2023/07/18 19:06:32;;;;;;;1.83;0.90;;;;;;;;;;5095103;28;20048;-90
2023/07/18 19:09:13;;;;;;;3.42;0.95;;;;;;;;;;5094585;28;20048;-90
2023/07/18 19:11:56;;;;;;;5.43;1.27;;;;;;;;;;5436140;22;20036;-89
2023/07/18 19:14:56;;;;;;;1.92;0.90;;;;;;;;;;5083296;28;20088;-89
2023/07/18 19:17:37;;;;;;;4.97;1.40;;;;;;;;;;5079915;28;20040;-89
2023/07/18 19:20:19;;;;;;;3.90;1.17;;;;;;;;;;5040244;28;20033;-88
2023/07/18 19:23:01;;;;;;;2.55;1.20;;;;;;;;;;5054015;28;20030;-88
2023/07/18 19:26:00;;;;;;;3.67;0.93;;;;;;;;;;5054384;28;20032;-88
2023/07/18 19:28:44;;;;;;;3.17;1.10;;;;;;;;;;5053727;28;20049;-90
2023/07/18 19:35:21;;;;;;;2.90;1.15;;;;;;;;;;5054625;28;20052;-90